createdAt,value
2018-02-15T00:01:58.393Z,13.10
2018-02-15T00:04:28.304Z,10.38
2018-02-15T00:06:57.349Z,14.20
2018-02-15T00:09:26.230Z,7.10
2018-02-15T00:11:55.120Z,6.65
2018-02-15T00:14:24.025Z,7.55
2018-02-15T00:16:52.940Z,8.63
2018-02-15T00:19:21.836Z,9.20
2018-02-15T00:21:51.390Z,13.00
2018-02-15T00:24:20.241Z,10.65
2018-02-15T00:26:49.826Z,10.40
2018-02-15T00:29:19.514Z,11.00
2018-02-15T00:31:48.627Z,10.05
2018-02-15T00:34:17.419Z,11.80
2018-02-15T00:36:46.349Z,10.77
2018-02-15T00:39:16.105Z,12.07
2018-02-15T00:41:45.096Z,13.73
2018-02-15T00:44:15.026Z,12.95
2018-02-15T00:46:44.015Z,12.10
2018-02-15T00:49:12.956Z,12.15
2018-02-15T00:51:41.777Z,11.32
2018-02-15T00:54:10.578Z,10.45
2018-02-15T00:56:40.132Z,10.10
2018-02-15T00:59:09.818Z,9.88
2018-02-15T01:01:38.626Z,10.55
2018-02-15T01:04:07.394Z,11.00
2018-02-15T01:06:36.345Z,10.25
2018-02-15T01:09:05.367Z,10.85
2018-02-15T01:11:34.118Z,10.43
2018-02-15T01:14:02.872Z,7.62
2018-02-15T01:16:32.328Z,6.85
2018-02-15T01:19:01.112Z,5.95
2018-02-15T01:21:30.649Z,5.72
2018-02-15T01:24:00.305Z,7.65
2018-02-15T01:26:29.263Z,10.75
2018-02-15T01:28:58.053Z,22.55
2018-02-15T01:31:27.528Z,15.48
2018-02-15T01:33:56.260Z,10.10
2018-02-15T01:36:25.690Z,9.48
2018-02-15T01:38:54.588Z,9.52
2018-02-15T01:41:23.559Z,9.18
2018-02-15T01:43:52.394Z,9.05
2018-02-15T01:46:21.252Z,14.00
2018-02-15T01:48:50.258Z,20.95
2018-02-15T01:51:19.068Z,22.90
2018-02-15T01:53:48.540Z,15.85
2018-02-15T01:56:17.313Z,12.32
2018-02-15T01:58:46.853Z,10.93
2018-02-15T02:01:15.756Z,13.60
2018-02-15T02:03:44.524Z,19.02
2018-02-15T02:06:13.229Z,25.92
2018-02-15T02:08:42.007Z,29.48
2018-02-15T02:11:11.165Z,29.12
2018-02-15T02:13:40.761Z,28.00
2018-02-15T02:16:10.189Z,29.70
2018-02-15T02:18:39.434Z,32.60
2018-02-15T02:21:08.982Z,31.73
2018-02-15T02:23:38.030Z,30.83
2018-02-15T02:26:07.566Z,27.75
2018-02-15T02:28:37.081Z,29.05
2018-02-15T02:31:05.822Z,27.00
2018-02-15T02:33:34.816Z,27.13
2018-02-15T02:36:03.540Z,27.08
2018-02-15T02:38:32.527Z,26.67
2018-02-15T02:41:02.066Z,36.50
2018-02-15T02:43:30.789Z,35.67
2018-02-15T02:45:59.698Z,34.67
2018-02-15T02:48:28.737Z,35.10
2018-02-15T02:50:57.833Z,40.40
2018-02-15T02:53:26.619Z,42.20
2018-02-15T02:55:55.661Z,39.58
2018-02-15T02:58:24.379Z,41.13
2018-02-15T03:00:53.163Z,39.70
2018-02-15T03:03:22.655Z,38.20
2018-02-15T03:05:52.291Z,35.83
2018-02-15T03:08:21.054Z,33.97
2018-02-15T03:10:50.131Z,39.03
2018-02-15T03:13:19.605Z,35.13
2018-02-15T03:15:48.520Z,34.03
2018-02-15T03:18:17.338Z,33.83
2018-02-15T03:20:46.907Z,36.67
2018-02-15T03:23:16.598Z,40.75
2018-02-15T03:25:45.409Z,46.03
2018-02-15T03:28:14.136Z,48.13
2018-02-15T03:30:43.270Z,47.53
2018-02-15T03:33:12.344Z,46.00
2018-02-15T03:35:41.115Z,42.62
2018-02-15T03:38:10.579Z,38.35
2018-02-15T03:40:39.350Z,35.63
2018-02-15T03:43:08.079Z,35.10
2018-02-15T03:45:36.898Z,30.17
2018-02-15T03:48:05.717Z,31.75
2018-02-15T03:50:34.760Z,32.72
2018-02-15T03:53:04.239Z,31.12
2018-02-15T03:55:33.022Z,31.87
2018-02-15T03:58:02.033Z,38.47
2018-02-15T04:00:31.078Z,36.10
2018-02-15T04:02:59.826Z,32.92
2018-02-15T04:05:28.707Z,34.90
2018-02-15T04:07:58.313Z,35.15
2018-02-15T04:10:27.217Z,33.70
2018-02-15T04:12:56.940Z,37.35
2018-02-15T04:15:26.905Z,35.63
2018-02-15T04:17:55.880Z,36.95
2018-02-15T04:20:24.669Z,42.30
2018-02-15T04:22:53.582Z,85.80
2018-02-15T04:25:22.374Z,53.35
2018-02-15T04:27:51.260Z,49.78
2018-02-15T04:30:20.832Z,35.17
2018-02-15T04:32:50.054Z,45.42
2018-02-15T04:35:19.073Z,42.13
2018-02-15T04:37:48.842Z,30.83
2018-02-15T04:40:17.658Z,39.63
2018-02-15T04:42:46.426Z,40.85
2018-02-15T04:45:15.132Z,50.20
2018-02-15T04:47:43.862Z,48.72
2018-02-15T04:50:12.669Z,50.08
2018-02-15T04:52:44.611Z,51.77
2018-02-15T04:55:14.690Z,60.42
2018-02-15T04:57:43.565Z,50.95
2018-02-15T05:00:12.561Z,46.80
2018-02-15T05:02:41.709Z,43.17
2018-02-15T05:05:10.580Z,46.03
2018-02-15T05:07:40.384Z,64.32
2018-02-15T05:10:09.215Z,81.65
2018-02-15T05:12:39.089Z,94.07
2018-02-15T05:15:08.695Z,54.22
2018-02-15T05:17:37.549Z,55.55
2018-02-15T05:20:06.318Z,53.67
2018-02-15T05:22:35.286Z,53.72
2018-02-15T05:25:04.256Z,50.88
2018-02-15T05:27:33.800Z,79.90
2018-02-15T05:30:03.372Z,101.57
2018-02-15T05:32:32.169Z,54.33
2018-02-15T05:35:00.944Z,43.00
2018-02-15T05:37:29.827Z,51.37
2018-02-15T05:39:58.688Z,53.47
2018-02-15T05:42:27.551Z,57.47
2018-02-15T05:44:56.309Z,46.90
2018-02-15T05:47:25.032Z,49.13
2018-02-15T05:49:53.919Z,53.58
2018-02-15T05:52:22.888Z,47.72
2018-02-15T05:54:52.569Z,48.08
2018-02-15T05:57:22.098Z,46.70
2018-02-15T05:59:51.025Z,34.63
2018-02-15T06:02:20.146Z,23.58
2018-02-15T06:04:49.037Z,41.78
2018-02-15T06:07:18.064Z,57.80
2018-02-15T06:09:48.245Z,44.58
2018-02-15T06:12:17.010Z,34.17
2018-02-15T06:14:45.899Z,30.62
2018-02-15T06:17:15.651Z,28.08
2018-02-15T06:19:45.249Z,27.58
2018-02-15T06:22:15.325Z,28.10
2018-02-15T06:27:19.974Z,24.52
2018-02-15T06:29:48.741Z,37.42
2018-02-15T06:32:17.677Z,57.90
2018-02-15T06:34:46.877Z,75.20
2018-02-15T06:37:16.144Z,102.07
2018-02-15T06:39:44.934Z,53.63
2018-02-15T06:42:14.070Z,55.10
2018-02-15T06:44:43.750Z,51.28
2018-02-15T06:47:12.468Z,41.25
2018-02-15T06:49:41.378Z,42.90
2018-02-15T06:52:11.051Z,43.85
2018-02-15T06:54:40.214Z,45.70
2018-02-15T06:57:08.977Z,40.67
2018-02-15T06:59:38.004Z,35.47
2018-02-15T07:02:06.832Z,29.67
2018-02-15T07:04:35.906Z,29.30
2018-02-15T07:07:04.955Z,24.87
2018-02-15T07:09:34.440Z,18.37
2018-02-15T07:12:03.176Z,17.37
2018-02-15T07:14:31.947Z,26.93
2018-02-15T07:17:01.731Z,32.47
2018-02-15T07:19:31.671Z,21.50
2018-02-15T07:22:01.179Z,16.27
2018-02-15T07:24:31.160Z,14.63
2018-02-15T07:27:00.030Z,11.20
2018-02-15T07:29:29.330Z,13.67
2018-02-15T07:32:03.198Z,15.13
2018-02-15T07:34:32.053Z,13.63
2018-02-15T07:37:01.137Z,12.50
2018-02-15T07:39:30.153Z,14.00
2018-02-15T07:41:58.882Z,15.63
2018-02-15T07:44:27.635Z,14.60
2018-02-15T07:46:57.183Z,21.90
2018-02-15T07:49:27.013Z,20.63
2018-02-15T07:51:56.252Z,19.90
2018-02-15T07:54:25.166Z,23.80
2018-02-15T07:56:54.115Z,23.73
2018-02-15T07:59:23.719Z,25.00
2018-02-15T08:01:52.852Z,30.60
2018-02-15T08:04:22.606Z,32.67
2018-02-15T08:06:51.511Z,36.57
2018-02-15T08:09:20.592Z,43.57
2018-02-15T08:11:49.642Z,38.57
2018-02-15T08:14:18.566Z,27.03
2018-02-15T08:16:47.475Z,23.03
2018-02-15T08:19:16.309Z,31.60
2018-02-15T08:21:45.962Z,40.73
2018-02-15T08:24:14.692Z,31.33
2018-02-15T08:26:43.467Z,19.03
2018-02-15T08:29:12.303Z,20.20
2018-02-15T08:31:41.262Z,20.80
2018-02-15T08:34:10.214Z,44.00
2018-02-15T08:36:39.030Z,14.43
2018-02-15T08:39:07.860Z,13.73
2018-02-15T08:41:36.716Z,15.87
2018-02-15T08:44:05.817Z,12.93
2018-02-15T08:46:35.338Z,10.60
2018-02-15T08:49:08.239Z,9.87
2018-02-15T08:51:37.965Z,11.87
2018-02-15T08:54:06.922Z,11.50
2018-02-15T08:56:36.558Z,11.77
2018-02-15T08:59:05.474Z,17.40
2018-02-15T09:01:35.632Z,14.87
2018-02-15T09:04:05.235Z,18.67
2018-02-15T09:06:34.296Z,33.87
2018-02-15T09:09:03.333Z,28.93
2018-02-15T09:11:32.958Z,63.00
2018-02-15T09:14:01.776Z,59.10
2018-02-15T09:16:30.507Z,48.93
2018-02-15T09:19:00.109Z,44.90
2018-02-15T09:21:29.166Z,32.07
2018-02-15T09:23:57.970Z,38.53
2018-02-15T09:26:27.046Z,31.63
2018-02-15T09:28:55.730Z,31.00
2018-02-15T09:31:24.844Z,28.23
2018-02-15T09:33:53.573Z,29.03
2018-02-15T09:36:22.339Z,33.77
2018-02-15T09:38:51.141Z,37.87
2018-02-15T09:41:20.019Z,29.70
2018-02-15T09:43:49.004Z,20.67
2018-02-15T09:46:18.537Z,13.60
2018-02-15T09:48:47.298Z,12.77
2018-02-15T09:51:16.102Z,13.57
2018-02-15T09:53:44.902Z,9.90
2018-02-15T09:56:14.511Z,9.97
2018-02-15T09:58:43.586Z,11.10
2018-02-15T10:01:12.382Z,12.43
2018-02-15T10:03:41.749Z,10.97
2018-02-15T10:06:10.601Z,10.30
2018-02-15T10:08:40.440Z,12.03
2018-02-15T10:11:09.437Z,12.90
2018-02-15T10:13:38.440Z,12.73
2018-02-15T10:16:07.417Z,10.90
2018-02-15T10:18:36.369Z,18.47
2018-02-15T10:21:05.167Z,18.47
2018-02-15T10:23:33.929Z,38.73
2018-02-15T10:26:03.661Z,23.73
2018-02-15T10:28:32.629Z,12.57
2018-02-15T10:31:01.344Z,17.03
2018-02-15T10:33:30.205Z,17.27
2018-02-15T10:35:59.987Z,28.40
2018-02-15T10:38:28.991Z,23.43
2018-02-15T10:40:57.805Z,23.43
2018-02-15T10:43:26.958Z,19.00
2018-02-15T10:45:55.809Z,18.23
2018-02-15T10:48:25.398Z,19.20
2018-02-15T10:50:54.209Z,9.63
2018-02-15T10:53:23.113Z,12.10
2018-02-15T10:55:52.002Z,20.10
2018-02-15T10:58:20.822Z,15.73
2018-02-15T11:00:55.317Z,12.37
2018-02-15T11:03:30.066Z,10.40
2018-02-15T11:06:03.722Z,13.93
2018-02-15T11:08:32.651Z,8.77
2018-02-15T11:11:01.398Z,13.50
2018-02-15T11:13:31.184Z,13.10
2018-02-15T11:16:00.367Z,13.20
2018-02-15T11:18:29.354Z,9.03
2018-02-15T11:20:58.099Z,7.70
2018-02-15T11:23:27.024Z,10.03
2018-02-15T11:25:55.805Z,17.80
2018-02-15T11:28:24.597Z,9.23
2018-02-15T11:30:53.460Z,8.57
2018-02-15T11:33:22.973Z,11.00
2018-02-15T11:35:52.477Z,12.87
2018-02-15T11:38:21.321Z,12.77
2018-02-15T11:40:50.123Z,10.73
2018-02-15T11:43:19.084Z,13.93
2018-02-15T11:45:47.902Z,16.93
2018-02-15T11:48:17.069Z,17.30
2018-02-15T11:50:46.144Z,7.87
2018-02-15T11:53:14.922Z,8.17
2018-02-15T11:55:43.994Z,9.63
2018-02-15T11:58:12.875Z,7.47
2018-02-15T12:00:42.630Z,7.73
2018-02-15T12:03:11.598Z,8.30
2018-02-15T12:05:41.145Z,9.53
2018-02-15T12:08:10.011Z,7.27
2018-02-15T12:10:38.884Z,6.60
2018-02-15T12:13:07.797Z,9.37
2018-02-15T12:15:36.671Z,6.60
2018-02-15T12:18:06.205Z,5.70
2018-02-15T12:20:35.348Z,5.20
2018-02-15T12:23:04.404Z,5.57
2018-02-15T12:25:33.389Z,6.53
2018-02-15T12:28:02.105Z,5.70
2018-02-15T12:30:31.692Z,5.97
2018-02-15T12:33:00.579Z,11.23
2018-02-15T12:35:29.800Z,4.53
2018-02-15T12:37:58.747Z,9.33
2018-02-15T12:40:27.635Z,14.93
2018-02-15T12:42:56.506Z,8.83
2018-02-15T12:45:26.078Z,12.90
2018-02-15T12:47:54.951Z,8.93
2018-02-15T12:50:23.862Z,5.73
2018-02-15T12:52:52.617Z,6.10
2018-02-15T12:55:21.463Z,3.97
2018-02-15T12:57:50.348Z,4.50
2018-02-15T13:00:19.295Z,3.47
2018-02-15T13:02:48.089Z,3.60
2018-02-15T13:05:17.000Z,6.70
2018-02-15T13:07:46.710Z,7.57
2018-02-15T13:10:15.493Z,9.70
2018-02-15T13:12:56.387Z,4.97
2018-02-15T13:15:36.693Z,9.50
2018-02-15T13:18:05.350Z,6.03
2018-02-15T13:20:34.269Z,12.00
2018-02-15T13:23:03.060Z,11.77
2018-02-15T13:25:32.383Z,9.83
2018-02-15T13:28:13.248Z,10.90
2018-02-15T13:30:42.713Z,18.13
2018-02-15T13:33:12.298Z,19.17
2018-02-15T13:35:41.106Z,13.03
2018-02-15T13:38:10.017Z,7.80
2018-02-15T13:40:38.832Z,5.10
2018-02-15T13:43:07.665Z,11.67
2018-02-15T13:45:37.182Z,8.30
2018-02-15T13:48:06.066Z,5.57
2018-02-15T13:50:35.810Z,4.00
2018-02-15T13:53:05.396Z,5.80
2018-02-15T13:55:34.429Z,6.60
2018-02-15T13:58:03.230Z,3.30
2018-02-15T14:00:32.096Z,4.90
2018-02-15T14:03:01.023Z,4.67
2018-02-15T14:05:29.962Z,7.03
2018-02-15T14:07:58.970Z,5.60
2018-02-15T14:10:27.687Z,4.87
2018-02-15T14:12:56.846Z,7.33
2018-02-15T14:15:25.783Z,4.27
2018-02-15T14:17:54.763Z,6.97
2018-02-15T14:20:23.638Z,4.17
2018-02-15T14:22:54.242Z,6.87
2018-02-15T14:25:23.467Z,18.53
2018-02-15T14:27:52.200Z,11.83
2018-02-15T14:30:21.240Z,10.80
2018-02-15T14:32:50.075Z,8.83
2018-02-15T14:35:18.976Z,7.63
2018-02-15T14:37:48.655Z,36.33
2018-02-15T14:40:18.289Z,20.87
2018-02-15T14:42:47.923Z,20.00
2018-02-15T14:45:17.556Z,5.93
2018-02-15T14:47:47.109Z,4.90
2018-02-15T14:50:15.944Z,6.93
2018-02-15T14:52:44.841Z,6.20
2018-02-15T14:55:14.068Z,6.70
2018-02-15T14:57:43.742Z,9.80
2018-02-15T15:00:12.662Z,51.17
2018-02-15T15:02:41.661Z,35.30
2018-02-15T15:05:10.534Z,42.37
2018-02-15T15:07:40.086Z,24.23
2018-02-15T15:10:08.813Z,21.43
2018-02-15T15:12:37.673Z,13.07
2018-02-15T15:15:07.240Z,11.80
2018-02-15T15:17:36.458Z,14.57
2018-02-15T15:20:06.141Z,28.63
2018-02-15T15:22:35.062Z,29.97
2018-02-15T15:25:04.710Z,13.60
2018-02-15T15:27:34.381Z,14.87
2018-02-15T15:30:03.114Z,17.43
2018-02-15T15:32:31.962Z,24.67
2018-02-15T15:35:01.414Z,16.43
2018-02-15T15:37:30.367Z,15.80
2018-02-15T15:39:59.318Z,14.97
2018-02-15T15:42:28.172Z,14.33
2018-02-15T15:44:56.957Z,22.62
2018-02-15T15:47:25.841Z,22.90
2018-02-15T15:49:54.963Z,25.07
2018-02-15T15:52:23.733Z,21.10
2018-02-15T15:54:53.581Z,20.27
2018-02-15T15:57:22.345Z,22.00
2018-02-15T15:59:51.275Z,17.97
2018-02-15T16:02:20.598Z,19.17
2018-02-15T16:04:49.413Z,19.80
2018-02-15T16:07:18.097Z,22.93
2018-02-15T16:09:46.944Z,26.93
2018-02-15T16:12:15.780Z,26.00
2018-02-15T16:14:44.580Z,27.17
2018-02-15T16:17:13.538Z,29.70
2018-02-15T16:19:42.382Z,21.23
2018-02-15T16:22:11.141Z,20.17
2018-02-15T16:24:40.103Z,19.10
2018-02-15T16:27:08.919Z,22.60
2018-02-15T16:29:37.717Z,22.27
2018-02-15T16:32:06.481Z,23.23
2018-02-15T16:34:35.457Z,33.37
2018-02-15T16:37:04.344Z,35.97
2018-02-15T16:39:33.853Z,34.50
2018-02-15T16:42:02.753Z,32.53
2018-02-15T16:44:31.564Z,41.27
2018-02-15T16:47:00.576Z,26.80
2018-02-15T16:49:29.429Z,19.43
2018-02-15T16:51:58.180Z,22.80
2018-02-15T16:54:26.873Z,24.20
2018-02-15T16:56:55.848Z,23.07
2018-02-15T16:59:24.608Z,22.67
2018-02-15T17:01:53.605Z,22.90
2018-02-15T17:04:22.709Z,19.60
2018-02-15T17:06:51.720Z,20.43
2018-02-15T17:09:20.673Z,21.50
2018-02-15T17:11:49.522Z,15.83
2018-02-15T17:14:18.286Z,17.80
2018-02-15T17:16:47.232Z,16.53
2018-02-15T17:19:16.024Z,15.77
2018-02-15T17:21:45.074Z,15.10
2018-02-15T17:24:14.336Z,24.23
2018-02-15T17:26:44.190Z,13.70
2018-02-15T17:29:13.706Z,10.67
2018-02-15T17:31:42.448Z,8.70
2018-02-15T17:34:11.211Z,8.20
2018-02-15T17:36:40.373Z,7.07
2018-02-15T17:39:09.148Z,6.03
2018-02-15T17:41:37.946Z,7.80
2018-02-15T17:44:06.969Z,7.20
2018-02-15T17:46:35.936Z,9.23
2018-02-15T17:49:04.868Z,11.33
2018-02-15T17:51:34.576Z,13.10
2018-02-15T17:54:03.364Z,12.20
2018-02-15T17:56:32.227Z,14.43
2018-02-15T17:59:01.029Z,31.67
2018-02-15T18:01:29.919Z,36.75
2018-02-15T18:03:58.721Z,35.30
2018-02-15T18:06:27.681Z,34.90
2018-02-15T18:08:56.685Z,34.93
2018-02-15T18:11:25.889Z,33.87
2018-02-15T18:13:54.669Z,33.30
2018-02-15T18:16:24.580Z,33.20
2018-02-15T18:18:54.116Z,37.13
2018-02-15T18:21:23.016Z,37.67
2018-02-15T18:23:51.818Z,39.97
2018-02-15T18:26:20.626Z,57.00
2018-02-15T18:28:49.641Z,51.27
2018-02-15T18:31:19.214Z,43.03
2018-02-15T18:33:48.054Z,35.67
2018-02-15T18:36:16.871Z,33.97
2018-02-15T18:38:46.523Z,35.87
2018-02-15T18:41:15.393Z,35.47
2018-02-15T18:43:44.972Z,37.10
2018-02-15T18:46:14.817Z,35.77
2018-02-15T18:48:43.908Z,41.03
2018-02-15T18:51:12.805Z,42.53
2018-02-15T18:53:42.425Z,48.03
2018-02-15T18:56:11.306Z,39.53
2018-02-15T18:58:40.449Z,41.90
2018-02-15T19:01:09.154Z,40.57
2018-02-15T19:03:37.932Z,39.03
2018-02-15T19:06:06.726Z,43.17
2018-02-15T19:08:35.620Z,43.70
2018-02-15T19:11:04.476Z,43.03
2018-02-15T19:13:34.092Z,42.20
2018-02-15T19:16:03.305Z,45.60
2018-02-15T19:18:32.489Z,44.07
2018-02-15T19:21:02.357Z,41.53
2018-02-15T19:23:31.956Z,38.63
2018-02-15T19:26:01.055Z,39.30
2018-02-15T19:28:30.213Z,37.97
2018-02-15T19:31:00.034Z,39.23
2018-02-15T19:33:28.769Z,35.33
2018-02-15T19:35:58.302Z,33.20
2018-02-15T19:38:27.976Z,38.20
2018-02-15T19:40:56.683Z,35.83
2018-02-15T19:43:25.450Z,33.47
2018-02-15T19:45:54.249Z,41.60
2018-02-15T19:48:22.985Z,42.20
2018-02-15T19:50:52.244Z,47.77
2018-02-15T19:53:21.089Z,50.77
2018-02-15T19:55:50.069Z,61.27
2018-02-15T19:58:18.883Z,48.33
2018-02-15T20:00:47.690Z,50.23
2018-02-15T20:03:16.594Z,56.23
2018-02-15T20:05:45.442Z,62.17
2018-02-15T20:08:14.476Z,43.83
2018-02-15T20:10:43.998Z,37.10
2018-02-15T20:13:13.154Z,36.93
2018-02-15T20:15:46.893Z,38.90
2018-02-15T20:18:15.966Z,42.73
2018-02-15T20:20:45.954Z,38.53
2018-02-15T20:23:14.698Z,36.33
2018-02-15T20:25:43.571Z,38.87
2018-02-15T20:28:16.163Z,38.90
2018-02-15T20:30:45.768Z,44.23
2018-02-15T20:33:14.594Z,41.97
2018-02-15T20:35:43.369Z,47.30
2018-02-15T20:41:19.067Z,43.43
2018-02-15T20:43:48.682Z,50.73
2018-02-15T20:46:17.449Z,49.77
2018-02-15T20:48:46.367Z,48.60
2018-02-15T20:51:20.887Z,47.60
2018-02-15T20:53:55.372Z,50.00
2018-02-15T20:56:24.327Z,44.70
2018-02-15T20:58:53.133Z,39.23
2018-02-15T21:01:22.653Z,36.70
2018-02-15T21:03:51.574Z,48.17
2018-02-15T21:06:20.825Z,65.80
2018-02-15T21:08:49.679Z,50.27
2018-02-15T21:11:19.421Z,44.67
2018-02-15T21:13:49.007Z,50.37
2018-02-15T21:16:18.521Z,45.93
2018-02-15T21:18:47.806Z,51.83
2018-02-15T21:21:16.629Z,47.93
2018-02-15T21:23:45.571Z,46.67
2018-02-15T21:26:14.658Z,49.33
2018-02-15T21:28:56.280Z,56.35
2018-02-15T21:31:27.778Z,51.73
2018-02-15T21:33:56.496Z,48.43
2018-02-15T21:36:26.474Z,41.63
2018-02-15T21:38:55.409Z,36.97
2018-02-15T21:41:24.396Z,35.40
2018-02-15T21:43:54.039Z,34.63
2018-02-15T21:46:23.106Z,36.17
2018-02-15T21:48:52.668Z,42.17
2018-02-15T21:51:21.931Z,46.13
2018-02-15T21:53:50.883Z,46.50
2018-02-15T21:56:19.720Z,48.20
2018-02-15T21:58:48.455Z,42.43
2018-02-15T22:01:17.235Z,41.33
2018-02-15T22:03:46.032Z,43.97
2018-02-15T22:06:15.992Z,50.13
2018-02-15T22:08:45.062Z,42.80
2018-02-15T22:11:14.967Z,45.45
2018-02-15T22:13:43.888Z,50.45
2018-02-15T22:16:12.672Z,55.15
2018-02-15T22:18:42.171Z,48.83
2018-02-15T22:21:10.919Z,42.17
2018-02-15T22:23:39.855Z,42.10
2018-02-15T22:26:09.479Z,44.55
2018-02-15T22:28:39.207Z,46.63
2018-02-15T22:31:08.152Z,42.17
2018-02-15T22:33:36.954Z,37.22
2018-02-15T22:36:07.894Z,35.33
2018-02-15T22:38:36.955Z,35.00
2018-02-15T22:41:05.849Z,35.97
2018-02-15T22:43:35.111Z,36.13
2018-02-15T22:46:03.950Z,34.65
2018-02-15T22:48:33.570Z,35.35
2018-02-15T22:51:02.486Z,35.95
2018-02-15T22:53:31.357Z,35.58
2018-02-15T22:56:00.325Z,36.97
2018-02-15T22:58:29.884Z,40.12
2018-02-15T23:00:58.657Z,41.47
2018-02-15T23:03:27.687Z,42.80
2018-02-15T23:05:56.404Z,41.90
2018-02-15T23:08:25.138Z,47.80
2018-02-15T23:10:54.023Z,46.47
2018-02-15T23:13:23.609Z,50.53
2018-02-15T23:15:53.468Z,52.70
2018-02-15T23:18:22.257Z,50.22
2018-02-15T23:20:51.109Z,43.97
2018-02-15T23:23:20.645Z,42.25
2018-02-15T23:25:49.394Z,38.05
2018-02-15T23:28:18.172Z,36.50
2018-02-15T23:30:46.917Z,38.28
2018-02-15T23:33:15.858Z,36.03
2018-02-15T23:35:45.382Z,35.75
2018-02-15T23:38:14.918Z,35.42
2018-02-15T23:40:43.709Z,36.22
2018-02-15T23:43:12.703Z,36.75
2018-02-15T23:45:41.705Z,37.10
2018-02-15T23:48:10.592Z,37.90
2018-02-15T23:50:39.874Z,37.97
2018-02-15T23:53:08.632Z,41.17
2018-02-15T23:55:37.602Z,43.17
2018-02-15T23:58:06.514Z,39.47
